PWSweather.com
Personal Weather Stations
Station Observations
UWIDEPER1
Brown County, Depere, WI 54115

Brown CountyDepere, WI 54115

Lat: 44.44, Lon: -88.05

Elevation: 610

Station Type: Acurite 5in1

www.depereweather.com

High Low Average
Temperature 81.9°F27.7°F 61.0°F16.1°F 72.3°F22.4°F
Dew Point 72.3°F22.4°F 58.9°F14.9°F 66.3°F19.1°F
Winds 6.9 mph SW11.1 mph SW Calm Calm 2.2 mph 3.5 mph
Wind Gusts 11.5 mph18.5 mph -- 3.2 mph5.1 mph
Humidity 95% 66% 82%
Pressure 30.01 in1016.30 in 29.93 in1013.50 in -
Precipitation 0.00 in0.00 in - -
Hour Temp Dew Point Humidity Winds Wind Gusts Pressure Precip Precip Rate Daily Precip Total
12:00 AM 64.6°F18.1°C 60.9°F16.1°C 88% Calm Calm 1.2 mph1.9 kmh 29.93 in1013.5 mb - 0.00 in0.0 mm 0.00 in0.0 mm
12:10 AM 64.4°F18.0°C 61.4°F16.3°C 90% Calm Calm 1.2 mph1.9 kmh 29.93 in1013.5 mb - 0.00 in0.0 mm 0.00 in0.0 mm
12:15 AM 64.0°F17.8°C 61.0°F16.1°C 90% Calm Calm -- 29.93 in1013.5 mb - 0.00 in0.0 mm 0.00 in0.0 mm
12:20 AM 63.9°F17.7°C 61.2°F16.2°C 91% Calm Calm -- 29.93 in1013.5 mb - 0.00 in0.0 mm 0.00 in0.0 mm
12:25 AM 63.9°F17.7°C 61.2°F16.2°C 91% Calm Calm -- 29.94 in1013.9 mb - 0.00 in0.0 mm 0.00 in0.0 mm
12:30 AM 63.9°F17.7°C 61.2°F16.2°C 91% Calm Calm -- 29.93 in1013.5 mb - 0.00 in0.0 mm 0.00 in0.0 mm
12:35 AM 63.8°F17.7°C 61.2°F16.2°C 91% Calm Calm -- 29.94 in1013.9 mb - 0.00 in0.0 mm 0.00 in0.0 mm
12:40 AM 63.7°F17.6°C 61.0°F16.1°C 91% Calm Calm -- 29.93 in1013.5 mb - 0.00 in0.0 mm 0.00 in0.0 mm
12:45 AM 63.3°F17.4°C 60.7°F15.9°C 91% Calm Calm -- 29.94 in1013.9 mb - 0.00 in0.0 mm 0.00 in0.0 mm
12:50 AM 63.7°F17.6°C 61.0°F16.1°C 91% Calm Calm -- 29.93 in1013.5 mb - 0.00 in0.0 mm 0.00 in0.0 mm
12:55 AM 63.3°F17.4°C 60.6°F15.9°C 91% Calm Calm 1.2 mph1.9 kmh 29.93 in1013.5 mb - 0.00 in0.0 mm 0.00 in0.0 mm
01:00 AM 63.3°F17.4°C 60.6°F15.9°C 91% Calm Calm -- 29.94 in1013.9 mb - 0.00 in0.0 mm 0.00 in0.0 mm
01:10 AM 63.3°F17.4°C 60.6°F15.9°C 91% Calm Calm 1.2 mph1.9 kmh 29.94 in1013.9 mb - 0.00 in0.0 mm 0.00 in0.0 mm
01:15 AM 63.2°F17.3°C 60.6°F15.9°C 91% Calm Calm -- 29.94 in1013.9 mb - 0.00 in0.0 mm 0.00 in0.0 mm
01:20 AM 63.0°F17.2°C 60.3°F15.7°C 91% Calm Calm -- 29.94 in1013.9 mb - 0.00 in0.0 mm 0.00 in0.0 mm
01:25 AM 63.0°F17.2°C 60.9°F16.1°C 93% Calm Calm -- 29.94 in1013.9 mb - 0.00 in0.0 mm 0.00 in0.0 mm
01:30 AM 63.0°F17.2°C 60.9°F16.1°C 93% Calm Calm -- 29.94 in1013.9 mb - 0.00 in0.0 mm 0.00 in0.0 mm
01:35 AM 62.9°F17.2°C 60.8°F16.0°C 93% Calm Calm -- 29.94 in1013.9 mb - 0.00 in0.0 mm 0.00 in0.0 mm
01:40 AM 62.8°F17.1°C 60.7°F15.9°C 93% Calm Calm -- 29.95 in1014.2 mb - 0.00 in0.0 mm 0.00 in0.0 mm
01:45 AM 62.8°F17.1°C 60.8°F16.0°C 93% Calm Calm -- 29.95 in1014.2 mb - 0.00 in0.0 mm 0.00 in0.0 mm
01:50 AM 62.8°F17.1°C 60.7°F15.9°C 93% Calm Calm 1.2 mph1.9 kmh 29.95 in1014.2 mb - 0.00 in0.0 mm 0.00 in0.0 mm
01:55 AM 63.0°F17.2°C 60.9°F16.1°C 93% Calm Calm -- 29.95 in1014.2 mb - 0.00 in0.0 mm 0.00 in0.0 mm
02:00 AM 63.0°F17.2°C 60.9°F16.1°C 93% Calm Calm -- 29.95 in1014.2 mb - 0.00 in0.0 mm 0.00 in0.0 mm
02:10 AM 63.0°F17.2°C 60.9°F16.1°C 93% Calm Calm -- 29.94 in1013.9 mb - 0.00 in0.0 mm 0.00 in0.0 mm
02:15 AM 63.0°F17.2°C 60.9°F16.1°C 93% Calm Calm -- 29.95 in1014.2 mb - 0.00 in0.0 mm 0.00 in0.0 mm
02:20 AM 63.0°F17.2°C 60.9°F16.1°C 93% 1.2 mph S1.9 kmh S 1.2 mph1.9 kmh 29.94 in1013.9 mb - 0.00 in0.0 mm 0.00 in0.0 mm
02:25 AM 63.0°F17.2°C 60.9°F16.1°C 93% Calm Calm -- 29.95 in1014.2 mb - 0.00 in0.0 mm 0.00 in0.0 mm
02:30 AM 62.9°F17.2°C 60.9°F16.1°C 93% Calm Calm -- 29.95 in1014.2 mb - 0.00 in0.0 mm 0.00 in0.0 mm
02:35 AM 62.8°F17.1°C 60.7°F15.9°C 93% Calm Calm 1.2 mph1.9 kmh 29.95 in1014.2 mb - 0.00 in0.0 mm 0.00 in0.0 mm
02:40 AM 62.8°F17.1°C 60.7°F15.9°C 93% Calm Calm -- 29.95 in1014.2 mb - 0.00 in0.0 mm 0.00 in0.0 mm
02:45 AM 62.4°F16.9°C 60.4°F15.8°C 93% Calm Calm -- 29.95 in1014.2 mb - 0.00 in0.0 mm 0.00 in0.0 mm
02:50 AM 62.4°F16.9°C 60.4°F15.8°C 93% Calm Calm 2.3 mph3.7 kmh 29.95 in1014.2 mb - 0.00 in0.0 mm 0.00 in0.0 mm
02:55 AM 62.4°F16.9°C 60.4°F15.8°C 93% Calm Calm -- 29.95 in1014.2 mb - 0.00 in0.0 mm 0.00 in0.0 mm
03:00 AM 62.8°F17.1°C 60.7°F15.9°C 93% Calm Calm -- 29.95 in1014.2 mb - 0.00 in0.0 mm 0.00 in0.0 mm
03:10 AM 62.8°F17.1°C 60.7°F15.9°C 93% Calm Calm 3.5 mph5.6 kmh 29.95 in1014.2 mb - 0.00 in0.0 mm 0.00 in0.0 mm
03:15 AM 63.0°F17.2°C 60.9°F16.1°C 93% 1.2 mph SE1.9 kmh SE 2.3 mph3.7 kmh 29.95 in1014.2 mb - 0.00 in0.0 mm 0.00 in0.0 mm
03:20 AM 62.8°F17.1°C 60.7°F15.9°C 93% Calm Calm 1.2 mph1.9 kmh 29.94 in1013.9 mb - 0.00 in0.0 mm 0.00 in0.0 mm
03:25 AM 62.4°F16.9°C 60.4°F15.8°C 93% Calm Calm 1.2 mph1.9 kmh 29.93 in1013.5 mb - 0.00 in0.0 mm 0.00 in0.0 mm
03:30 AM 62.4°F16.9°C 60.4°F15.8°C 93% Calm Calm 1.2 mph1.9 kmh 29.93 in1013.5 mb - 0.00 in0.0 mm 0.00 in0.0 mm
03:35 AM 62.4°F16.9°C 60.4°F15.8°C 93% Calm Calm 1.2 mph1.9 kmh 29.93 in1013.5 mb - 0.00 in0.0 mm 0.00 in0.0 mm
03:40 AM 62.4°F16.9°C 60.4°F15.8°C 93% Calm Calm 1.2 mph1.9 kmh 29.93 in1013.5 mb - 0.00 in0.0 mm 0.00 in0.0 mm
03:45 AM 62.4°F16.9°C 60.4°F15.8°C 93% Calm Calm -- 29.93 in1013.5 mb - 0.00 in0.0 mm 0.00 in0.0 mm
03:50 AM 62.4°F16.9°C 60.4°F15.8°C 93% Calm Calm 2.3 mph3.7 kmh 29.95 in1014.2 mb - 0.00 in0.0 mm 0.00 in0.0 mm
03:55 AM 62.2°F16.8°C 60.2°F15.7°C 93% Calm Calm -- 29.94 in1013.9 mb - 0.00 in0.0 mm 0.00 in0.0 mm
04:00 AM 62.1°F16.7°C 60.0°F15.6°C 93% Calm Calm -- 29.95 in1014.2 mb - 0.00 in0.0 mm 0.00 in0.0 mm
04:10 AM 61.7°F16.5°C 59.7°F15.4°C 93% Calm Calm -- 29.95 in1014.2 mb - 0.00 in0.0 mm 0.00 in0.0 mm
04:15 AM 61.5°F16.4°C 59.5°F15.3°C 93% Calm Calm -- 29.95 in1014.2 mb - 0.00 in0.0 mm 0.00 in0.0 mm
04:20 AM 61.5°F16.4°C 59.5°F15.3°C 93% Calm Calm -- 29.95 in1014.2 mb - 0.00 in0.0 mm 0.00 in0.0 mm
04:25 AM 61.5°F16.4°C 59.5°F15.3°C 93% Calm Calm -- 29.95 in1014.2 mb - 0.00 in0.0 mm 0.00 in0.0 mm
04:30 AM 61.3°F16.3°C 59.3°F15.2°C 93% Calm Calm 2.3 mph3.7 kmh 29.96 in1014.6 mb - 0.00 in0.0 mm 0.00 in0.0 mm
04:35 AM 61.3°F16.3°C 59.3°F15.2°C 93% Calm Calm -- 29.96 in1014.6 mb - 0.00 in0.0 mm 0.00 in0.0 mm
04:40 AM 61.2°F16.2°C 59.1°F15.1°C 93% Calm Calm -- 29.96 in1014.6 mb - 0.00 in0.0 mm 0.00 in0.0 mm
04:45 AM 61.0°F16.1°C 58.9°F14.9°C 93% Calm Calm -- 29.96 in1014.6 mb - 0.00 in0.0 mm 0.00 in0.0 mm
04:50 AM 61.3°F16.3°C 59.6°F15.3°C 94% Calm Calm -- 29.96 in1014.6 mb - 0.00 in0.0 mm 0.00 in0.0 mm
04:55 AM 61.5°F16.4°C 60.1°F15.6°C 95% Calm Calm -- 29.97 in1014.9 mb - 0.00 in0.0 mm 0.00 in0.0 mm
05:00 AM 61.5°F16.4°C 60.1°F15.6°C 95% Calm Calm -- 29.97 in1014.9 mb - 0.00 in0.0 mm 0.00 in0.0 mm
05:10 AM 61.5°F16.4°C 60.1°F15.6°C 95% Calm Calm -- 29.97 in1014.9 mb - 0.00 in0.0 mm 0.00 in0.0 mm
05:15 AM 61.5°F16.4°C 60.0°F15.6°C 95% Calm Calm -- 29.96 in1014.6 mb - 0.00 in0.0 mm 0.00 in0.0 mm
05:20 AM 61.3°F16.3°C 59.9°F15.5°C 95% Calm Calm -- 29.96 in1014.6 mb - 0.00 in0.0 mm 0.00 in0.0 mm
05:25 AM 61.3°F16.3°C 59.9°F15.5°C 95% Calm Calm -- 29.97 in1014.9 mb - 0.00 in0.0 mm 0.00 in0.0 mm
05:30 AM 61.2°F16.2°C 59.7°F15.4°C 95% Calm Calm 1.2 mph1.9 kmh 29.97 in1014.9 mb - 0.00 in0.0 mm 0.00 in0.0 mm
05:35 AM 61.3°F16.3°C 59.9°F15.5°C 95% 1.2 mph SW1.9 kmh SW 1.2 mph1.9 kmh 29.98 in1015.2 mb - 0.00 in0.0 mm 0.00 in0.0 mm
05:40 AM 61.3°F16.3°C 59.9°F15.5°C 95% Calm Calm -- 29.97 in1014.9 mb - 0.00 in0.0 mm 0.00 in0.0 mm
05:45 AM 61.2°F16.2°C 59.7°F15.4°C 95% Calm Calm -- 29.97 in1014.9 mb - 0.00 in0.0 mm 0.00 in0.0 mm
05:50 AM 61.2°F16.2°C 59.7°F15.4°C 95% Calm Calm -- 29.98 in1015.2 mb - 0.00 in0.0 mm 0.00 in0.0 mm
05:55 AM 61.3°F16.3°C 59.9°F15.5°C 95% Calm Calm -- 29.98 in1015.2 mb - 0.00 in0.0 mm 0.00 in0.0 mm
06:00 AM 61.5°F16.4°C 60.1°F15.6°C 95% 1.2 mph WSW1.9 kmh WSW 2.3 mph3.7 kmh 29.98 in1015.2 mb - 0.00 in0.0 mm 0.00 in0.0 mm
06:10 AM 61.7°F16.5°C 60.3°F15.7°C 95% 1.2 mph SW1.9 kmh SW 1.2 mph1.9 kmh 29.98 in1015.2 mb - 0.00 in0.0 mm 0.00 in0.0 mm
06:15 AM 61.7°F16.5°C 60.3°F15.7°C 95% Calm Calm -- 29.98 in1015.2 mb - 0.00 in0.0 mm 0.00 in0.0 mm
06:20 AM 61.5°F16.4°C 60.1°F15.6°C 95% Calm Calm -- 29.98 in1015.2 mb - 0.00 in0.0 mm 0.00 in0.0 mm
06:25 AM 61.5°F16.4°C 60.1°F15.6°C 95% Calm Calm -- 29.98 in1015.2 mb - 0.00 in0.0 mm 0.00 in0.0 mm
06:30 AM 61.7°F16.5°C 60.3°F15.7°C 95% Calm Calm 1.2 mph1.9 kmh 29.98 in1015.2 mb - 0.00 in0.0 mm 0.00 in0.0 mm
06:35 AM 61.7°F16.5°C 60.3°F15.7°C 95% Calm Calm -- 29.98 in1015.2 mb - 0.00 in0.0 mm 0.00 in0.0 mm
06:40 AM 61.7°F16.5°C 60.3°F15.7°C 95% Calm Calm -- 29.98 in1015.2 mb - 0.00 in0.0 mm 0.00 in0.0 mm
06:45 AM 61.9°F16.6°C 60.4°F15.8°C 95% Calm Calm -- 29.98 in1015.2 mb - 0.00 in0.0 mm 0.00 in0.0 mm
06:50 AM 62.1°F16.7°C 60.6°F15.9°C 95% Calm Calm 3.5 mph5.6 kmh 29.98 in1015.2 mb - 0.00 in0.0 mm 0.00 in0.0 mm
06:55 AM 62.4°F16.9°C 61.0°F16.1°C 95% Calm Calm 1.2 mph1.9 kmh 29.98 in1015.2 mb - 0.00 in0.0 mm 0.00 in0.0 mm
07:00 AM 62.6°F17.0°C 61.2°F16.2°C 95% Calm Calm -- 29.98 in1015.2 mb - 0.00 in0.0 mm 0.00 in0.0 mm
07:10 AM 64.9°F18.3°C 61.9°F16.6°C 90% Calm Calm 1.2 mph1.9 kmh 29.99 in1015.6 mb - 0.00 in0.0 mm 0.00 in0.0 mm
07:15 AM 65.8°F18.8°C 62.5°F16.9°C 89% 1.2 mph SSE1.9 kmh SSE 1.2 mph1.9 kmh 29.99 in1015.6 mb - 0.00 in0.0 mm 0.00 in0.0 mm
07:20 AM 66.4°F19.1°C 62.7°F17.1°C 88% 1.2 mph S1.9 kmh S 2.3 mph3.7 kmh 29.99 in1015.6 mb - 0.00 in0.0 mm 0.00 in0.0 mm
07:25 AM 66.6°F19.2°C 62.9°F17.2°C 88% 2.3 mph SE3.7 kmh SE 2.3 mph3.7 kmh 29.99 in1015.6 mb - 0.00 in0.0 mm 0.00 in0.0 mm
07:30 AM 67.3°F19.6°C 63.6°F17.6°C 88% 1.2 mph S1.9 kmh S 3.5 mph5.6 kmh 29.99 in1015.6 mb - 0.00 in0.0 mm 0.00 in0.0 mm
07:35 AM 67.8°F19.9°C 63.5°F17.5°C 86% 1.2 mph S1.9 kmh S 3.5 mph5.6 kmh 29.99 in1015.6 mb - 0.00 in0.0 mm 0.00 in0.0 mm
07:40 AM 68.2°F20.1°C 63.8°F17.7°C 86% 2.3 mph SSW3.7 kmh SSW 4.6 mph7.4 kmh 30.00 in1015.9 mb - 0.00 in0.0 mm 0.00 in0.0 mm
07:45 AM 68.4°F20.2°C 64.0°F17.8°C 86% 2.3 mph SE3.7 kmh SE 2.3 mph3.7 kmh 30.00 in1015.9 mb - 0.00 in0.0 mm 0.00 in0.0 mm
07:50 AM 69.1°F20.6°C 64.7°F18.2°C 86% 1.2 mph SSE1.9 kmh SSE 1.2 mph1.9 kmh 30.00 in1015.9 mb - 0.00 in0.0 mm 0.00 in0.0 mm
07:55 AM 69.4°F20.8°C 64.7°F18.2°C 85% 1.2 mph SSE1.9 kmh SSE 1.2 mph1.9 kmh 30.00 in1015.9 mb - 0.00 in0.0 mm 0.00 in0.0 mm
08:00 AM 69.5°F20.8°C 64.8°F18.2°C 85% 2.3 mph SSW3.7 kmh SSW 3.5 mph5.6 kmh 29.99 in1015.6 mb - 0.00 in0.0 mm 0.00 in0.0 mm
08:10 AM 70.3°F21.3°C 64.9°F18.3°C 83% 2.3 mph SSW3.7 kmh SSW 3.5 mph5.6 kmh 29.99 in1015.6 mb - 0.00 in0.0 mm 0.00 in0.0 mm
08:15 AM 71.1°F21.7°C 65.6°F18.7°C 83% 1.2 mph S1.9 kmh S 2.3 mph3.7 kmh 29.99 in1015.6 mb - 0.00 in0.0 mm 0.00 in0.0 mm
08:20 AM 71.4°F21.9°C 65.3°F18.5°C 81% 1.2 mph S1.9 kmh S 2.3 mph3.7 kmh 30.00 in1015.9 mb - 0.00 in0.0 mm 0.00 in0.0 mm
08:25 AM 71.9°F22.2°C 65.8°F18.8°C 81% 2.3 mph S3.7 kmh S 3.5 mph5.6 kmh 29.99 in1015.6 mb - 0.00 in0.0 mm 0.00 in0.0 mm
08:30 AM 71.8°F22.1°C 65.7°F18.7°C 81% 2.3 mph SSE3.7 kmh SSE 3.5 mph5.6 kmh 29.99 in1015.6 mb - 0.00 in0.0 mm 0.00 in0.0 mm
08:35 AM 72.2°F22.3°C 66.1°F18.9°C 81% 2.3 mph SE3.7 kmh SE 2.3 mph3.7 kmh 29.99 in1015.6 mb - 0.00 in0.0 mm 0.00 in0.0 mm
08:40 AM 72.5°F22.5°C 66.0°F18.9°C 80% 1.2 mph S1.9 kmh S 3.5 mph5.6 kmh 29.99 in1015.6 mb - 0.00 in0.0 mm 0.00 in0.0 mm
08:45 AM 72.7°F22.6°C 66.2°F19.0°C 80% 2.3 mph WSW3.7 kmh WSW 4.6 mph7.4 kmh 29.99 in1015.6 mb - 0.00 in0.0 mm 0.00 in0.0 mm
08:50 AM 72.5°F22.5°C 66.0°F18.9°C 80% 2.3 mph S3.7 kmh S 2.3 mph3.7 kmh 29.99 in1015.6 mb - 0.00 in0.0 mm 0.00 in0.0 mm
08:55 AM 73.0°F22.8°C 66.1°F18.9°C 79% 2.3 mph S3.7 kmh S 2.3 mph3.7 kmh 29.99 in1015.6 mb - 0.00 in0.0 mm 0.00 in0.0 mm
09:00 AM 73.4°F23.0°C 66.5°F19.2°C 79% 3.5 mph S5.6 kmh S 6.9 mph11.1 kmh 30.00 in1015.9 mb - 0.00 in0.0 mm 0.00 in0.0 mm
09:10 AM 73.6°F23.1°C 66.7°F19.3°C 79% 3.5 mph SSW5.6 kmh SSW 3.5 mph5.6 kmh 30.00 in1015.9 mb - 0.00 in0.0 mm 0.00 in0.0 mm
09:15 AM 73.6°F23.1°C 66.3°F19.1°C 78% 3.5 mph SSW5.6 kmh SSW 3.5 mph5.6 kmh 30.00 in1015.9 mb - 0.00 in0.0 mm 0.00 in0.0 mm
09:20 AM 73.8°F23.2°C 66.5°F19.2°C 78% 3.5 mph E5.6 kmh E 6.9 mph11.1 kmh 30.00 in1015.9 mb - 0.00 in0.0 mm 0.00 in0.0 mm
09:25 AM 73.9°F23.3°C 66.6°F19.2°C 78% 3.5 mph WSW5.6 kmh WSW 3.5 mph5.6 kmh 30.00 in1015.9 mb - 0.00 in0.0 mm 0.00 in0.0 mm
09:30 AM 74.2°F23.4°C 66.9°F19.4°C 78% 2.3 mph S3.7 kmh S 3.5 mph5.6 kmh 30.00 in1015.9 mb - 0.00 in0.0 mm 0.00 in0.0 mm
09:35 AM 74.5°F23.6°C 66.5°F19.2°C 76% 3.5 mph S5.6 kmh S 3.5 mph5.6 kmh 30.01 in1016.3 mb - 0.00 in0.0 mm 0.00 in0.0 mm
09:40 AM 74.8°F23.8°C 66.8°F19.3°C 76% 2.3 mph ESE3.7 kmh ESE 3.5 mph5.6 kmh 29.99 in1015.6 mb - 0.00 in0.0 mm 0.00 in0.0 mm
09:45 AM 75.0°F23.9°C 66.9°F19.4°C 76% 2.3 mph SE3.7 kmh SE 3.5 mph5.6 kmh 29.99 in1015.6 mb - 0.00 in0.0 mm 0.00 in0.0 mm
09:50 AM 75.4°F24.1°C 67.3°F19.6°C 76% 3.5 mph SSE5.6 kmh SSE 4.6 mph7.4 kmh 29.99 in1015.6 mb - 0.00 in0.0 mm 0.00 in0.0 mm
09:55 AM 75.6°F24.2°C 67.5°F19.7°C 76% 3.5 mph S5.6 kmh S 2.3 mph3.7 kmh 29.99 in1015.6 mb - 0.00 in0.0 mm 0.00 in0.0 mm
10:00 AM 76.0°F24.4°C 67.9°F19.9°C 76% 2.3 mph S3.7 kmh S 2.3 mph3.7 kmh 29.99 in1015.6 mb - 0.00 in0.0 mm 0.00 in0.0 mm
10:10 AM 76.3°F24.6°C 67.8°F19.9°C 75% 3.5 mph S5.6 kmh S 4.6 mph7.4 kmh 29.99 in1015.6 mb - 0.00 in0.0 mm 0.00 in0.0 mm
10:15 AM 76.7°F24.8°C 68.6°F20.3°C 76% 2.3 mph SSW3.7 kmh SSW 3.5 mph5.6 kmh 30.00 in1015.9 mb - 0.00 in0.0 mm 0.00 in0.0 mm
10:20 AM 76.8°F24.9°C 68.3°F20.2°C 75% 2.3 mph ESE3.7 kmh ESE 3.5 mph5.6 kmh 30.00 in1015.9 mb - 0.00 in0.0 mm 0.00 in0.0 mm
10:25 AM 77.5°F25.3°C 69.0°F20.6°C 75% 2.3 mph SE3.7 kmh SE 3.5 mph5.6 kmh 30.00 in1015.9 mb - 0.00 in0.0 mm 0.00 in0.0 mm
10:30 AM 77.5°F25.3°C 68.6°F20.3°C 74% 3.5 mph SSW5.6 kmh SSW 5.8 mph9.3 kmh 30.00 in1015.9 mb - 0.00 in0.0 mm 0.00 in0.0 mm
10:35 AM 77.5°F25.3°C 68.9°F20.5°C 75% 3.5 mph SE5.6 kmh SE 4.6 mph7.4 kmh 30.00 in1015.9 mb - 0.00 in0.0 mm 0.00 in0.0 mm
10:40 AM 77.4°F25.2°C 68.8°F20.4°C 75% 4.6 mph S7.4 kmh S 4.6 mph7.4 kmh 30.00 in1015.9 mb - 0.00 in0.0 mm 0.00 in0.0 mm
10:45 AM 78.2°F25.7°C 69.2°F20.7°C 74% 3.5 mph SSE5.6 kmh SSE 3.5 mph5.6 kmh 29.99 in1015.6 mb - 0.00 in0.0 mm 0.00 in0.0 mm
10:50 AM 78.4°F25.8°C 68.7°F20.4°C 72% 4.6 mph NNE7.4 kmh NNE 9.2 mph14.8 kmh 30.00 in1015.9 mb - 0.00 in0.0 mm 0.00 in0.0 mm
10:55 AM 78.2°F25.7°C 68.0°F20.0°C 71% 4.6 mph SE7.4 kmh SE 4.6 mph7.4 kmh 30.00 in1015.9 mb - 0.00 in0.0 mm 0.00 in0.0 mm
11:00 AM 78.1°F25.6°C 68.0°F20.0°C 71% 4.6 mph WSW7.4 kmh WSW 6.9 mph11.1 kmh 30.00 in1015.9 mb - 0.00 in0.0 mm 0.00 in0.0 mm
11:10 AM 78.8°F26.0°C 68.2°F20.1°C 70% 4.6 mph WSW7.4 kmh WSW 10.4 mph16.7 kmh 30.00 in1015.9 mb - 0.00 in0.0 mm 0.00 in0.0 mm
11:15 AM 78.4°F25.8°C 67.8°F19.9°C 70% 5.8 mph SW9.3 kmh SW 8.1 mph13.0 kmh 30.00 in1015.9 mb - 0.00 in0.0 mm 0.00 in0.0 mm
11:20 AM 78.4°F25.8°C 67.8°F19.9°C 70% 5.8 mph WSW9.3 kmh WSW 6.9 mph11.1 kmh 30.00 in1015.9 mb - 0.00 in0.0 mm 0.00 in0.0 mm
11:25 AM 78.4°F25.8°C 67.8°F19.9°C 70% 5.8 mph SSW9.3 kmh SSW 6.9 mph11.1 kmh 30.00 in1015.9 mb - 0.00 in0.0 mm 0.00 in0.0 mm
11:30 AM 78.1°F25.6°C 67.1°F19.5°C 69% 5.8 mph SE9.3 kmh SE 11.5 mph18.5 kmh 30.00 in1015.9 mb - 0.00 in0.0 mm 0.00 in0.0 mm
11:35 AM 77.7°F25.4°C 66.7°F19.3°C 69% 5.8 mph SSW9.3 kmh SSW 5.8 mph9.3 kmh 29.99 in1015.6 mb - 0.00 in0.0 mm 0.00 in0.0 mm
11:40 AM 78.3°F25.7°C 67.3°F19.6°C 69% 4.6 mph S7.4 kmh S 8.1 mph13.0 kmh 29.99 in1015.6 mb - 0.00 in0.0 mm 0.00 in0.0 mm
11:45 AM 78.3°F25.7°C 67.3°F19.6°C 69% 5.8 mph WSW9.3 kmh WSW 5.8 mph9.3 kmh 29.99 in1015.6 mb - 0.00 in0.0 mm 0.00 in0.0 mm
11:50 AM 78.4°F25.8°C 67.4°F19.7°C 69% 4.6 mph SW7.4 kmh SW 8.1 mph13.0 kmh 29.99 in1015.6 mb - 0.00 in0.0 mm 0.00 in0.0 mm
11:55 AM 79.2°F26.2°C 67.7°F19.8°C 68% 4.6 mph WSW7.4 kmh WSW 6.9 mph11.1 kmh 29.99 in1015.6 mb - 0.00 in0.0 mm 0.00 in0.0 mm
12:00 PM 79.2°F26.2°C 66.8°F19.3°C 66% 5.8 mph W9.3 kmh W 8.1 mph13.0 kmh 29.99 in1015.6 mb - 0.00 in0.0 mm 0.00 in0.0 mm
12:10 PM 79.2°F26.2°C 66.8°F19.3°C 66% 6.9 mph SW11.1 kmh SW 5.8 mph9.3 kmh 29.99 in1015.6 mb - 0.00 in0.0 mm 0.00 in0.0 mm
12:15 PM 79.3°F26.3°C 67.0°F19.4°C 66% 4.6 mph S7.4 kmh S 9.2 mph14.8 kmh 29.99 in1015.6 mb - 0.00 in0.0 mm 0.00 in0.0 mm
12:20 PM 79.3°F26.3°C 67.9°F19.9°C 68% 6.9 mph S11.1 kmh S 3.5 mph5.6 kmh 29.98 in1015.2 mb - 0.00 in0.0 mm 0.00 in0.0 mm
12:25 PM 80.1°F26.7°C 67.7°F19.8°C 66% 4.6 mph SW7.4 kmh SW 6.9 mph11.1 kmh 29.98 in1015.2 mb - 0.00 in0.0 mm 0.00 in0.0 mm
12:30 PM 79.5°F26.4°C 67.6°F19.8°C 67% 4.6 mph WNW7.4 kmh WNW 9.2 mph14.8 kmh 29.98 in1015.2 mb - 0.00 in0.0 mm 0.00 in0.0 mm
12:35 PM 79.3°F26.3°C 67.0°F19.4°C 66% 5.8 mph SW9.3 kmh SW 8.1 mph13.0 kmh 29.98 in1015.2 mb - 0.00 in0.0 mm 0.00 in0.0 mm
12:40 PM 79.9°F26.6°C 68.4°F20.2°C 68% 4.6 mph SE7.4 kmh SE 8.1 mph13.0 kmh 29.98 in1015.2 mb - 0.00 in0.0 mm 0.00 in0.0 mm
12:45 PM 79.5°F26.4°C 68.5°F20.3°C 69% 5.8 mph S9.3 kmh S 3.5 mph5.6 kmh 29.98 in1015.2 mb - 0.00 in0.0 mm 0.00 in0.0 mm
12:50 PM 80.6°F27.0°C 69.1°F20.6°C 68% 3.5 mph SSW5.6 kmh SSW 4.6 mph7.4 kmh 29.98 in1015.2 mb - 0.00 in0.0 mm 0.00 in0.0 mm
12:55 PM 80.6°F27.0°C 69.1°F20.6°C 68% 5.8 mph S9.3 kmh S 4.6 mph7.4 kmh 29.97 in1014.9 mb - 0.00 in0.0 mm 0.00 in0.0 mm
01:00 PM 80.3°F26.8°C 67.9°F19.9°C 66% 5.8 mph SSW9.3 kmh SSW 8.1 mph13.0 kmh 29.97 in1014.9 mb - 0.00 in0.0 mm 0.00 in0.0 mm
01:10 PM 81.1°F27.3°C 70.4°F21.3°C 70% 2.3 mph SE3.7 kmh SE 3.5 mph5.6 kmh 29.96 in1014.6 mb - 0.00 in0.0 mm 0.00 in0.0 mm
01:15 PM 81.0°F27.2°C 69.4°F20.8°C 68% 3.5 mph S5.6 kmh S 8.1 mph13.0 kmh 29.96 in1014.6 mb - 0.00 in0.0 mm 0.00 in0.0 mm
01:20 PM 81.9°F27.7°C 70.7°F21.5°C 69% 3.5 mph SSE5.6 kmh SSE 3.5 mph5.6 kmh 29.96 in1014.6 mb - 0.00 in0.0 mm 0.00 in0.0 mm
01:25 PM 81.3°F27.4°C 69.7°F20.9°C 68% 3.5 mph SSW5.6 kmh SSW 3.5 mph5.6 kmh 29.96 in1014.6 mb - 0.00 in0.0 mm 0.00 in0.0 mm
01:30 PM 81.4°F27.4°C 70.3°F21.3°C 69% 3.5 mph SE5.6 kmh SE 3.5 mph5.6 kmh 29.96 in1014.6 mb - 0.00 in0.0 mm 0.00 in0.0 mm
01:35 PM 81.3°F27.4°C 69.7°F20.9°C 68% 3.5 mph SW5.6 kmh SW 5.8 mph9.3 kmh 29.96 in1014.6 mb - 0.00 in0.0 mm 0.00 in0.0 mm
01:40 PM 80.4°F26.9°C 69.3°F20.7°C 69% 4.6 mph SSW7.4 kmh SSW 4.6 mph7.4 kmh 29.96 in1014.6 mb - 0.00 in0.0 mm 0.00 in0.0 mm
01:45 PM 81.0°F27.2°C 70.3°F21.3°C 70% 3.5 mph S5.6 kmh S 5.8 mph9.3 kmh 29.96 in1014.6 mb - 0.00 in0.0 mm 0.00 in0.0 mm
01:50 PM 81.3°F27.4°C 70.6°F21.4°C 70% 3.5 mph S5.6 kmh S 10.4 mph16.7 kmh 29.96 in1014.6 mb - 0.00 in0.0 mm 0.00 in0.0 mm
01:55 PM 80.7°F27.1°C 70.0°F21.1°C 70% 4.6 mph SSE7.4 kmh SSE 4.6 mph7.4 kmh 29.96 in1014.6 mb - 0.00 in0.0 mm 0.00 in0.0 mm
02:00 PM 80.3°F26.8°C 69.6°F20.9°C 70% 3.5 mph SW5.6 kmh SW 2.3 mph3.7 kmh 29.96 in1014.6 mb - 0.00 in0.0 mm 0.00 in0.0 mm
02:10 PM 80.1°F26.7°C 69.8°F21.0°C 71% 3.5 mph S5.6 kmh S 4.6 mph7.4 kmh 29.96 in1014.6 mb - 0.00 in0.0 mm 0.00 in0.0 mm
02:15 PM 80.2°F26.8°C 70.0°F21.1°C 71% 3.5 mph SW5.6 kmh SW 3.5 mph5.6 kmh 29.97 in1014.9 mb - 0.00 in0.0 mm 0.00 in0.0 mm
02:20 PM 80.1°F26.7°C 69.8°F21.0°C 71% 3.5 mph S5.6 kmh S 4.6 mph7.4 kmh 29.96 in1014.6 mb - 0.00 in0.0 mm 0.00 in0.0 mm
02:25 PM 80.1°F26.7°C 69.8°F21.0°C 71% 4.6 mph S7.4 kmh S 8.1 mph13.0 kmh 29.96 in1014.6 mb - 0.00 in0.0 mm 0.00 in0.0 mm
02:30 PM 79.9°F26.6°C 69.6°F20.9°C 71% 3.5 mph S5.6 kmh S 4.6 mph7.4 kmh 29.96 in1014.6 mb - 0.00 in0.0 mm 0.00 in0.0 mm
02:35 PM 80.1°F26.7°C 69.8°F21.0°C 71% 3.5 mph SSE5.6 kmh SSE 4.6 mph7.4 kmh 29.96 in1014.6 mb - 0.00 in0.0 mm 0.00 in0.0 mm
02:40 PM 80.1°F26.7°C 69.8°F21.0°C 71% 3.5 mph SE5.6 kmh SE 4.6 mph7.4 kmh 29.96 in1014.6 mb - 0.00 in0.0 mm 0.00 in0.0 mm
02:45 PM 79.9°F26.6°C 70.5°F21.4°C 73% 5.8 mph SSW9.3 kmh SSW 5.8 mph9.3 kmh 29.96 in1014.6 mb - 0.00 in0.0 mm 0.00 in0.0 mm
02:50 PM 79.5°F26.4°C 69.7°F20.9°C 72% 5.8 mph SSE9.3 kmh SSE 3.5 mph5.6 kmh 29.95 in1014.2 mb - 0.00 in0.0 mm 0.00 in0.0 mm
02:55 PM 80.1°F26.7°C 69.8°F21.0°C 71% 3.5 mph WSW5.6 kmh WSW 6.9 mph11.1 kmh 29.95 in1014.2 mb - 0.00 in0.0 mm 0.00 in0.0 mm
03:00 PM 80.1°F26.7°C 70.6°F21.4°C 73% 3.5 mph S5.6 kmh S 5.8 mph9.3 kmh 29.95 in1014.2 mb - 0.00 in0.0 mm 0.00 in0.0 mm
03:10 PM 80.4°F26.9°C 70.2°F21.2°C 71% 4.6 mph SW7.4 kmh SW 8.1 mph13.0 kmh 29.95 in1014.2 mb - 0.00 in0.0 mm 0.00 in0.0 mm
03:15 PM 80.2°F26.8°C 69.9°F21.1°C 71% 4.6 mph S7.4 kmh S 5.8 mph9.3 kmh 29.95 in1014.2 mb - 0.00 in0.0 mm 0.00 in0.0 mm
03:20 PM 80.1°F26.7°C 70.6°F21.4°C 73% 4.6 mph WSW7.4 kmh WSW 6.9 mph11.1 kmh 29.95 in1014.2 mb - 0.00 in0.0 mm 0.00 in0.0 mm
03:25 PM 80.2°F26.8°C 71.2°F21.8°C 74% 3.5 mph S5.6 kmh S 3.5 mph5.6 kmh 29.95 in1014.2 mb - 0.00 in0.0 mm 0.00 in0.0 mm
03:30 PM 80.2°F26.8°C 70.8°F21.6°C 73% 4.6 mph SE7.4 kmh SE 6.9 mph11.1 kmh 29.95 in1014.2 mb - 0.00 in0.0 mm 0.00 in0.0 mm
03:35 PM 80.1°F26.7°C 70.6°F21.4°C 73% 4.6 mph SSW7.4 kmh SSW 5.8 mph9.3 kmh 29.95 in1014.2 mb - 0.00 in0.0 mm 0.00 in0.0 mm
03:40 PM 80.2°F26.8°C 71.2°F21.8°C 74% 3.5 mph S5.6 kmh S 6.9 mph11.1 kmh 29.95 in1014.2 mb - 0.00 in0.0 mm 0.00 in0.0 mm
03:45 PM 80.2°F26.8°C 71.2°F21.8°C 74% 4.6 mph SW7.4 kmh SW 3.5 mph5.6 kmh 29.95 in1014.2 mb - 0.00 in0.0 mm 0.00 in0.0 mm
03:50 PM 80.4°F26.9°C 71.4°F21.9°C 74% 2.3 mph SE3.7 kmh SE 3.5 mph5.6 kmh 29.95 in1014.2 mb - 0.00 in0.0 mm 0.00 in0.0 mm
03:55 PM 80.4°F26.9°C 71.4°F21.9°C 74% 3.5 mph SW5.6 kmh SW 3.5 mph5.6 kmh 29.94 in1013.9 mb - 0.00 in0.0 mm 0.00 in0.0 mm
04:00 PM 80.8°F27.1°C 71.7°F22.1°C 74% 2.3 mph S3.7 kmh S 3.5 mph5.6 kmh 29.95 in1014.2 mb - 0.00 in0.0 mm 0.00 in0.0 mm
04:10 PM 80.8°F27.1°C 72.1°F22.3°C 75% 2.3 mph S3.7 kmh S 2.3 mph3.7 kmh 29.93 in1013.5 mb - 0.00 in0.0 mm 0.00 in0.0 mm
04:15 PM 80.4°F26.9°C 71.8°F22.1°C 75% 3.5 mph SW5.6 kmh SW 4.6 mph7.4 kmh 29.95 in1014.2 mb - 0.00 in0.0 mm 0.00 in0.0 mm
04:20 PM 80.1°F26.7°C 71.4°F21.9°C 75% 3.5 mph S5.6 kmh S 8.1 mph13.0 kmh 29.93 in1013.5 mb - 0.00 in0.0 mm 0.00 in0.0 mm
04:25 PM 80.0°F26.7°C 71.4°F21.9°C 75% 4.6 mph SW7.4 kmh SW 4.6 mph7.4 kmh 29.94 in1013.9 mb - 0.00 in0.0 mm 0.00 in0.0 mm
04:30 PM 79.9°F26.6°C 71.2°F21.8°C 75% 3.5 mph SSE5.6 kmh SSE 4.6 mph7.4 kmh 29.94 in1013.9 mb - 0.00 in0.0 mm 0.00 in0.0 mm
04:35 PM 80.0°F26.7°C 71.4°F21.9°C 75% 3.5 mph SW5.6 kmh SW 6.9 mph11.1 kmh 29.93 in1013.5 mb - 0.00 in0.0 mm 0.00 in0.0 mm
04:40 PM 80.1°F26.7°C 71.4°F21.9°C 75% 4.6 mph S7.4 kmh S 3.5 mph5.6 kmh 29.94 in1013.9 mb - 0.00 in0.0 mm 0.00 in0.0 mm
04:45 PM 80.1°F26.7°C 71.4°F21.9°C 75% 4.6 mph SSW7.4 kmh SSW 8.1 mph13.0 kmh 29.94 in1013.9 mb - 0.00 in0.0 mm 0.00 in0.0 mm
04:50 PM 80.2°F26.8°C 71.6°F22.0°C 75% 4.6 mph SSE7.4 kmh SSE 4.6 mph7.4 kmh 29.93 in1013.5 mb - 0.00 in0.0 mm 0.00 in0.0 mm
04:55 PM 80.4°F26.9°C 71.8°F22.1°C 75% 3.5 mph ENE5.6 kmh ENE 3.5 mph5.6 kmh 29.94 in1013.9 mb - 0.00 in0.0 mm 0.00 in0.0 mm
05:00 PM 80.9°F27.2°C 72.2°F22.3°C 75% 3.5 mph S5.6 kmh S 3.5 mph5.6 kmh 29.93 in1013.5 mb - 0.00 in0.0 mm 0.00 in0.0 mm
05:10 PM 80.4°F26.9°C 71.8°F22.1°C 75% 3.5 mph SW5.6 kmh SW 3.5 mph5.6 kmh 29.93 in1013.5 mb - 0.00 in0.0 mm 0.00 in0.0 mm
05:15 PM 80.4°F26.9°C 71.8°F22.1°C 75% 3.5 mph S5.6 kmh S 3.5 mph5.6 kmh 29.93 in1013.5 mb - 0.00 in0.0 mm 0.00 in0.0 mm
05:20 PM 80.6°F27.0°C 72.0°F22.2°C 75% 3.5 mph SE5.6 kmh SE 8.1 mph13.0 kmh 29.93 in1013.5 mb - 0.00 in0.0 mm 0.00 in0.0 mm
05:25 PM 81.0°F27.2°C 72.3°F22.4°C 75% 2.3 mph SSE3.7 kmh SSE 5.8 mph9.3 kmh 29.94 in1013.9 mb - 0.00 in0.0 mm 0.00 in0.0 mm
05:30 PM 80.6°F27.0°C 72.0°F22.2°C 75% 3.5 mph SSE5.6 kmh SSE 5.8 mph9.3 kmh 29.94 in1013.9 mb - 0.00 in0.0 mm 0.00 in0.0 mm
05:35 PM 80.2°F26.8°C 71.6°F22.0°C 75% 3.5 mph SSW5.6 kmh SSW 4.6 mph7.4 kmh 29.94 in1013.9 mb - 0.00 in0.0 mm 0.00 in0.0 mm
05:40 PM 80.1°F26.7°C 71.4°F21.9°C 75% 3.5 mph SSE5.6 kmh SSE 2.3 mph3.7 kmh 29.94 in1013.9 mb - 0.00 in0.0 mm 0.00 in0.0 mm
05:45 PM 80.1°F26.7°C 71.4°F21.9°C 75% 3.5 mph SW5.6 kmh SW 4.6 mph7.4 kmh 29.94 in1013.9 mb - 0.00 in0.0 mm 0.00 in0.0 mm
05:50 PM 80.1°F26.7°C 71.8°F22.1°C 76% 4.6 mph SSE7.4 kmh SSE 3.5 mph5.6 kmh 29.94 in1013.9 mb - 0.00 in0.0 mm 0.00 in0.0 mm
05:55 PM 80.1°F26.7°C 71.8°F22.1°C 76% 3.5 mph SE5.6 kmh SE 3.5 mph5.6 kmh 29.94 in1013.9 mb - 0.00 in0.0 mm 0.00 in0.0 mm
06:00 PM 80.2°F26.8°C 72.0°F22.2°C 76% 3.5 mph S5.6 kmh S 3.5 mph5.6 kmh 29.94 in1013.9 mb - 0.00 in0.0 mm 0.00 in0.0 mm
06:10 PM 79.9°F26.6°C 71.6°F22.0°C 76% 3.5 mph E5.6 kmh E 5.8 mph9.3 kmh 29.94 in1013.9 mb - 0.00 in0.0 mm 0.00 in0.0 mm
06:15 PM 79.9°F26.6°C 71.6°F22.0°C 76% 3.5 mph SSW5.6 kmh SSW 3.5 mph5.6 kmh 29.94 in1013.9 mb - 0.00 in0.0 mm 0.00 in0.0 mm
06:20 PM 79.9°F26.6°C 71.6°F22.0°C 76% 3.5 mph S5.6 kmh S 3.5 mph5.6 kmh 29.94 in1013.9 mb - 0.00 in0.0 mm 0.00 in0.0 mm
06:25 PM 79.3°F26.3°C 71.9°F22.2°C 78% 4.6 mph S7.4 kmh S 3.5 mph5.6 kmh 29.94 in1013.9 mb - 0.00 in0.0 mm 0.00 in0.0 mm
06:30 PM 79.3°F26.3°C 71.9°F22.2°C 78% 3.5 mph S5.6 kmh S 4.6 mph7.4 kmh 29.95 in1014.2 mb - 0.00 in0.0 mm 0.00 in0.0 mm
06:35 PM 79.2°F26.2°C 71.7°F22.1°C 78% 2.3 mph SSW3.7 kmh SSW 4.6 mph7.4 kmh 29.94 in1013.9 mb - 0.00 in0.0 mm 0.00 in0.0 mm
06:40 PM 79.0°F26.1°C 71.5°F21.9°C 78% 3.5 mph S5.6 kmh S 3.5 mph5.6 kmh 29.95 in1014.2 mb - 0.00 in0.0 mm 0.00 in0.0 mm
06:45 PM 78.8°F26.0°C 71.7°F22.1°C 79% 2.3 mph S3.7 kmh S 6.9 mph11.1 kmh 29.95 in1014.2 mb - 0.00 in0.0 mm 0.00 in0.0 mm
06:50 PM 78.4°F25.8°C 71.4°F21.9°C 79% 3.5 mph S5.6 kmh S 2.3 mph3.7 kmh 29.95 in1014.2 mb - 0.00 in0.0 mm 0.00 in0.0 mm
06:55 PM 78.3°F25.7°C 71.2°F21.8°C 79% 2.3 mph S3.7 kmh S 4.6 mph7.4 kmh 29.95 in1014.2 mb - 0.00 in0.0 mm 0.00 in0.0 mm
07:00 PM 78.3°F25.7°C 71.2°F21.8°C 79% 1.2 mph S1.9 kmh S 1.2 mph1.9 kmh 29.95 in1014.2 mb - 0.00 in0.0 mm 0.00 in0.0 mm
07:10 PM 78.1°F25.6°C 71.0°F21.7°C 79% 2.3 mph S3.7 kmh S 3.5 mph5.6 kmh 29.96 in1014.6 mb - 0.00 in0.0 mm 0.00 in0.0 mm
07:15 PM 77.5°F25.3°C 70.9°F21.6°C 80% 2.3 mph NW3.7 kmh NW 3.5 mph5.6 kmh 29.96 in1014.6 mb - 0.00 in0.0 mm 0.00 in0.0 mm
07:20 PM 77.5°F25.3°C 70.9°F21.6°C 80% 2.3 mph SE3.7 kmh SE 3.5 mph5.6 kmh 29.95 in1014.2 mb - 0.00 in0.0 mm 0.00 in0.0 mm
07:25 PM 77.4°F25.2°C 70.7°F21.5°C 80% 2.3 mph S3.7 kmh S 5.8 mph9.3 kmh 29.96 in1014.6 mb - 0.00 in0.0 mm 0.00 in0.0 mm
07:30 PM 77.2°F25.1°C 70.5°F21.4°C 80% 2.3 mph S3.7 kmh S 3.5 mph5.6 kmh 29.95 in1014.2 mb - 0.00 in0.0 mm 0.00 in0.0 mm
07:35 PM 76.8°F24.9°C 70.2°F21.2°C 80% 1.2 mph NNE1.9 kmh NNE 2.3 mph3.7 kmh 29.96 in1014.6 mb - 0.00 in0.0 mm 0.00 in0.0 mm
07:40 PM 76.5°F24.7°C 69.8°F21.0°C 80% 1.2 mph SE1.9 kmh SE 2.3 mph3.7 kmh 29.96 in1014.6 mb - 0.00 in0.0 mm 0.00 in0.0 mm
07:45 PM 76.4°F24.7°C 69.7°F20.9°C 80% 1.2 mph SE1.9 kmh SE 3.5 mph5.6 kmh 29.96 in1014.6 mb - 0.00 in0.0 mm 0.00 in0.0 mm
07:50 PM 75.9°F24.4°C 69.3°F20.7°C 80% 1.2 mph E1.9 kmh E 2.3 mph3.7 kmh 29.96 in1014.6 mb - 0.00 in0.0 mm 0.00 in0.0 mm
07:55 PM 75.9°F24.4°C 69.3°F20.7°C 80% 1.2 mph SE1.9 kmh SE 1.2 mph1.9 kmh 29.96 in1014.6 mb - 0.00 in0.0 mm 0.00 in0.0 mm
08:00 PM 75.6°F24.2°C 69.0°F20.6°C 80% 1.2 mph S1.9 kmh S 3.5 mph5.6 kmh 29.96 in1014.6 mb - 0.00 in0.0 mm 0.00 in0.0 mm
08:10 PM 74.8°F23.8°C 68.6°F20.3°C 81% 1.2 mph S1.9 kmh S 1.2 mph1.9 kmh 29.96 in1014.6 mb - 0.00 in0.0 mm 0.00 in0.0 mm
08:15 PM 74.6°F23.7°C 69.1°F20.6°C 83% 1.2 mph SE1.9 kmh SE 2.3 mph3.7 kmh 29.96 in1014.6 mb - 0.00 in0.0 mm 0.00 in0.0 mm
08:20 PM 74.3°F23.5°C 68.8°F20.4°C 83% 1.2 mph S1.9 kmh S 3.5 mph5.6 kmh 29.96 in1014.6 mb - 0.00 in0.0 mm 0.00 in0.0 mm
08:25 PM 73.9°F23.3°C 68.4°F20.2°C 83% 1.2 mph SE1.9 kmh SE 2.3 mph3.7 kmh 29.96 in1014.6 mb - 0.00 in0.0 mm 0.00 in0.0 mm
08:30 PM 73.9°F23.3°C 68.4°F20.2°C 83% 1.2 mph SSE1.9 kmh SSE 2.3 mph3.7 kmh 29.97 in1014.9 mb - 0.00 in0.0 mm 0.00 in0.0 mm
08:35 PM 73.8°F23.2°C 69.0°F20.6°C 85% 2.3 mph S3.7 kmh S 2.3 mph3.7 kmh 29.97 in1014.9 mb - 0.00 in0.0 mm 0.00 in0.0 mm
08:40 PM 73.6°F23.1°C 68.8°F20.4°C 85% 1.2 mph S1.9 kmh S 3.5 mph5.6 kmh 29.97 in1014.9 mb - 0.00 in0.0 mm 0.00 in0.0 mm
08:45 PM 73.6°F23.1°C 68.8°F20.4°C 85% 1.2 mph SE1.9 kmh SE 3.5 mph5.6 kmh 29.97 in1014.9 mb - 0.00 in0.0 mm 0.00 in0.0 mm
08:50 PM 73.4°F23.0°C 68.6°F20.3°C 85% 1.2 mph SSE1.9 kmh SSE 3.5 mph5.6 kmh 29.97 in1014.9 mb - 0.00 in0.0 mm 0.00 in0.0 mm
08:55 PM 73.4°F23.0°C 68.6°F20.3°C 85% 3.5 mph SE5.6 kmh SE 2.3 mph3.7 kmh 29.97 in1014.9 mb - 0.00 in0.0 mm 0.00 in0.0 mm
09:00 PM 73.4°F23.0°C 68.6°F20.3°C 85% 1.2 mph SSE1.9 kmh SSE 5.8 mph9.3 kmh 29.98 in1015.2 mb - 0.00 in0.0 mm 0.00 in0.0 mm
09:10 PM 73.4°F23.0°C 68.6°F20.3°C 85% 3.5 mph SSW5.6 kmh SSW 4.6 mph7.4 kmh 29.98 in1015.2 mb - 0.00 in0.0 mm 0.00 in0.0 mm
09:15 PM 73.4°F23.0°C 68.6°F20.3°C 85% 3.5 mph SW5.6 kmh SW 4.6 mph7.4 kmh 29.98 in1015.2 mb - 0.00 in0.0 mm 0.00 in0.0 mm
09:20 PM 73.0°F22.8°C 68.3°F20.2°C 85% 4.6 mph S7.4 kmh S 6.9 mph11.1 kmh 29.98 in1015.2 mb - 0.00 in0.0 mm 0.00 in0.0 mm
09:25 PM 73.0°F22.8°C 68.3°F20.2°C 85% 3.5 mph S5.6 kmh S 4.6 mph7.4 kmh 29.98 in1015.2 mb - 0.00 in0.0 mm 0.00 in0.0 mm
09:30 PM 72.9°F22.7°C 68.1°F20.1°C 85% 2.3 mph SW3.7 kmh SW 3.5 mph5.6 kmh 29.99 in1015.6 mb - 0.00 in0.0 mm 0.00 in0.0 mm
09:35 PM 72.7°F22.6°C 67.9°F19.9°C 85% 2.3 mph S3.7 kmh S 4.6 mph7.4 kmh 29.99 in1015.6 mb - 0.00 in0.0 mm 0.00 in0.0 mm
09:40 PM 72.5°F22.5°C 68.1°F20.1°C 86% 2.3 mph SW3.7 kmh SW 4.6 mph7.4 kmh 29.99 in1015.6 mb - 0.00 in0.0 mm 0.00 in0.0 mm
09:45 PM 72.5°F22.5°C 68.1°F20.1°C 86% 3.5 mph S5.6 kmh S 3.5 mph5.6 kmh 29.99 in1015.6 mb - 0.00 in0.0 mm 0.00 in0.0 mm
09:50 PM 72.3°F22.4°C 67.9°F19.9°C 86% 2.3 mph SW3.7 kmh SW 3.5 mph5.6 kmh 29.99 in1015.6 mb - 0.00 in0.0 mm 0.00 in0.0 mm
09:55 PM 72.3°F22.4°C 67.9°F19.9°C 86% 1.2 mph SSW1.9 kmh SSW 3.5 mph5.6 kmh 29.98 in1015.2 mb - 0.00 in0.0 mm 0.00 in0.0 mm
10:00 PM 72.3°F22.4°C 67.9°F19.9°C 86% 1.2 mph S1.9 kmh S 3.5 mph5.6 kmh 29.99 in1015.6 mb - 0.00 in0.0 mm 0.00 in0.0 mm
10:10 PM 72.3°F22.4°C 67.9°F19.9°C 86% 1.2 mph SSW1.9 kmh SSW 2.3 mph3.7 kmh 29.99 in1015.6 mb - 0.00 in0.0 mm 0.00 in0.0 mm
10:15 PM 72.3°F22.4°C 67.9°F19.9°C 86% 2.3 mph S3.7 kmh S 3.5 mph5.6 kmh 29.99 in1015.6 mb - 0.00 in0.0 mm 0.00 in0.0 mm
10:20 PM 72.3°F22.4°C 67.9°F19.9°C 86% 2.3 mph S3.7 kmh S 3.5 mph5.6 kmh 29.99 in1015.6 mb - 0.00 in0.0 mm 0.00 in0.0 mm
10:25 PM 72.3°F22.4°C 67.9°F19.9°C 86% 2.3 mph SSW3.7 kmh SSW 3.5 mph5.6 kmh 29.99 in1015.6 mb - 0.00 in0.0 mm 0.00 in0.0 mm
10:30 PM 72.1°F22.3°C 67.7°F19.8°C 86% 2.3 mph SSW3.7 kmh SSW 3.5 mph5.6 kmh 29.99 in1015.6 mb - 0.00 in0.0 mm 0.00 in0.0 mm
10:35 PM 72.1°F22.3°C 67.7°F19.8°C 86% 1.2 mph S1.9 kmh S 2.3 mph3.7 kmh 29.99 in1015.6 mb - 0.00 in0.0 mm 0.00 in0.0 mm
10:40 PM 72.0°F22.2°C 67.5°F19.7°C 86% 1.2 mph SW1.9 kmh SW 2.3 mph3.7 kmh 30.00 in1015.9 mb - 0.00 in0.0 mm 0.00 in0.0 mm
10:45 PM 72.0°F22.2°C 67.5°F19.7°C 86% 2.3 mph SW3.7 kmh SW 3.5 mph5.6 kmh 29.99 in1015.6 mb - 0.00 in0.0 mm 0.00 in0.0 mm
10:50 PM 72.0°F22.2°C 67.5°F19.7°C 86% 1.2 mph SW1.9 kmh SW 3.5 mph5.6 kmh 29.99 in1015.6 mb - 0.00 in0.0 mm 0.00 in0.0 mm
10:55 PM 72.0°F22.2°C 67.5°F19.7°C 86% 2.3 mph SSE3.7 kmh SSE 2.3 mph3.7 kmh 30.00 in1015.9 mb - 0.00 in0.0 mm 0.00 in0.0 mm
11:00 PM 72.1°F22.3°C 67.6°F19.8°C 86% 2.3 mph S3.7 kmh S 2.3 mph3.7 kmh 29.99 in1015.6 mb - 0.00 in0.0 mm 0.00 in0.0 mm
11:10 PM 72.3°F22.4°C 67.9°F19.9°C 86% 2.3 mph S3.7 kmh S 2.3 mph3.7 kmh 29.99 in1015.6 mb - 0.00 in0.0 mm 0.00 in0.0 mm
11:15 PM 72.3°F22.4°C 67.9°F19.9°C 86% 1.2 mph SSE1.9 kmh SSE 2.3 mph3.7 kmh 29.99 in1015.6 mb - 0.00 in0.0 mm 0.00 in0.0 mm
11:20 PM 72.1°F22.3°C 67.7°F19.8°C 86% 1.2 mph SSW1.9 kmh SSW 3.5 mph5.6 kmh 29.99 in1015.6 mb - 0.00 in0.0 mm 0.00 in0.0 mm
11:25 PM 72.1°F22.3°C 67.7°F19.8°C 86% 2.3 mph W3.7 kmh W 3.5 mph5.6 kmh 29.99 in1015.6 mb - 0.00 in0.0 mm 0.00 in0.0 mm
11:30 PM 72.1°F22.3°C 67.7°F19.8°C 86% 1.2 mph SW1.9 kmh SW 2.3 mph3.7 kmh 30.00 in1015.9 mb - 0.00 in0.0 mm 0.00 in0.0 mm
11:35 PM 72.1°F22.3°C 67.7°F19.8°C 86% 1.2 mph SW1.9 kmh SW 3.5 mph5.6 kmh 29.99 in1015.6 mb - 0.00 in0.0 mm 0.00 in0.0 mm
11:40 PM 72.0°F22.2°C 67.5°F19.7°C 86% 1.2 mph S1.9 kmh S 2.3 mph3.7 kmh 30.00 in1015.9 mb - 0.00 in0.0 mm 0.00 in0.0 mm
11:45 PM 71.8°F22.1°C 68.0°F20.0°C 88% 1.2 mph SSW1.9 kmh SSW 2.3 mph3.7 kmh 30.00 in1015.9 mb - 0.00 in0.0 mm 0.00 in0.0 mm
11:50 PM 71.4°F21.9°C 67.7°F19.8°C 88% 1.2 mph S1.9 kmh S 2.3 mph3.7 kmh 30.00 in1015.9 mb - 0.00 in0.0 mm 0.00 in0.0 mm
11:55 PM 71.4°F21.9°C 67.7°F19.8°C 88% 1.2 mph S1.9 kmh S 2.3 mph3.7 kmh 30.00 in1015.9 mb - 0.00 in0.0 mm 0.00 in0.0 mm